createdAt,value
2019-05-11T00:01:01.019Z,32.17
2019-05-11T00:03:33.844Z,32.10
2019-05-11T00:06:08.521Z,32.13
2019-05-11T00:08:48.831Z,32.12
2019-05-11T00:11:25.452Z,32.13
2019-05-11T00:13:58.811Z,32.14
2019-05-11T00:16:31.880Z,32.05
2019-05-11T00:19:03.185Z,32.07
2019-05-11T00:21:34.880Z,32.16
2019-05-11T00:24:09.865Z,32.19
2019-05-11T00:26:42.035Z,32.23
2019-05-11T00:29:15.457Z,32.18
2019-05-11T00:31:48.618Z,32.25
2019-05-11T00:34:20.177Z,32.38
2019-05-11T00:36:51.663Z,32.39
2019-05-11T00:39:24.341Z,32.48
2019-05-11T00:41:57.929Z,32.60
2019-05-11T00:44:29.440Z,32.67
2019-05-11T00:47:00.004Z,32.75
2019-05-11T00:49:32.148Z,32.74
2019-05-11T00:52:04.795Z,32.73
2019-05-11T00:54:38.412Z,32.82
2019-05-11T00:57:11.142Z,32.88
2019-05-11T00:59:43.521Z,32.81
2019-05-11T01:02:16.058Z,32.85
2019-05-11T01:04:48.633Z,32.83
2019-05-11T01:07:20.722Z,32.67
2019-05-11T01:09:53.565Z,32.70
2019-05-11T01:12:29.292Z,32.62
2019-05-11T01:15:01.504Z,32.65
2019-05-11T01:17:33.997Z,32.56
2019-05-11T01:20:06.965Z,32.56
2019-05-11T01:22:38.508Z,32.55
2019-05-11T01:25:11.615Z,32.67
2019-05-11T01:27:44.545Z,32.66
2019-05-11T01:30:17.434Z,32.67
2019-05-11T01:32:50.352Z,32.76
2019-05-11T01:35:22.736Z,32.77
2019-05-11T01:37:55.079Z,32.83
2019-05-11T01:40:28.297Z,32.84
2019-05-11T01:43:00.627Z,32.84
2019-05-11T01:45:32.114Z,32.85
2019-05-11T01:48:02.653Z,32.88
2019-05-11T01:50:34.324Z,32.92
2019-05-11T01:53:06.452Z,32.97
2019-05-11T01:55:38.762Z,33.01
2019-05-11T01:58:11.351Z,33.03
2019-05-11T02:00:43.733Z,32.97
2019-05-11T02:03:19.231Z,33.00
2019-05-11T02:05:51.861Z,33.04
2019-05-11T02:08:24.837Z,33.10
2019-05-11T02:11:13.731Z,33.16
2019-05-11T02:13:31.361Z,33.21
2019-05-11T02:16:03.252Z,33.25
2019-05-11T02:18:36.930Z,33.29
2019-05-11T02:21:10.127Z,33.27
2019-05-11T02:23:43.097Z,33.41
2019-05-11T02:26:18.450Z,33.42
2019-05-11T02:28:50.345Z,33.42
2019-05-11T02:31:22.301Z,33.43
2019-05-11T02:33:56.157Z,33.52
2019-05-11T02:36:28.636Z,33.57
2019-05-11T02:39:01.304Z,33.60
2019-05-11T02:41:36.938Z,33.55
2019-05-11T02:44:08.585Z,33.60
2019-05-11T02:46:41.142Z,33.60
2019-05-11T02:49:13.321Z,33.64
2019-05-11T02:51:45.943Z,33.67
2019-05-11T02:54:18.843Z,33.64
2019-05-11T02:56:51.744Z,33.71
2019-05-11T02:59:29.473Z,33.76
2019-05-11T03:01:59.413Z,33.71
2019-05-11T03:04:34.894Z,33.77
2019-05-11T03:07:08.051Z,33.78
2019-05-11T03:09:41.120Z,33.59
2019-05-11T03:12:14.092Z,33.62
2019-05-11T03:14:46.337Z,33.80
2019-05-11T03:17:20.663Z,33.84
2019-05-11T03:19:52.537Z,33.72
2019-05-11T03:22:25.736Z,33.69
2019-05-11T03:24:57.760Z,33.70
2019-05-11T03:27:29.951Z,33.83
2019-05-11T03:30:02.458Z,33.88
2019-05-11T03:32:35.250Z,33.83
2019-05-11T03:35:08.871Z,33.89
2019-05-11T03:37:42.527Z,33.87
2019-05-11T03:40:15.431Z,33.96
2019-05-11T03:42:48.087Z,33.96
2019-05-11T03:45:20.290Z,34.00
2019-05-11T03:47:52.683Z,34.08
2019-05-11T03:50:28.321Z,34.13
2019-05-11T03:53:01.321Z,34.10
2019-05-11T03:55:34.251Z,34.15
2019-05-11T03:58:06.735Z,34.16
2019-05-11T04:00:39.649Z,34.20
2019-05-11T04:03:11.952Z,34.08
2019-05-11T04:05:48.069Z,34.12
2019-05-11T04:08:20.741Z,34.22
2019-05-11T04:10:53.797Z,34.21
2019-05-11T04:13:26.254Z,34.32
2019-05-11T04:15:58.971Z,34.36
2019-05-11T04:18:31.695Z,34.43
2019-05-11T04:21:05.197Z,34.42
2019-05-11T04:23:37.232Z,34.33
2019-05-11T04:26:09.866Z,34.32
2019-05-11T04:28:42.282Z,34.21
2019-05-11T04:31:14.830Z,34.18
2019-05-11T04:33:50.383Z,34.27
2019-05-11T04:36:22.616Z,34.23
2019-05-11T04:38:54.141Z,34.27
2019-05-11T04:41:24.939Z,34.36
2019-05-11T04:43:56.583Z,34.39
2019-05-11T04:46:28.373Z,34.41
2019-05-11T04:49:04.983Z,34.44
2019-05-11T04:51:39.148Z,34.56
2019-05-11T04:54:11.825Z,34.57
2019-05-11T04:56:44.772Z,34.60
2019-05-11T04:59:17.439Z,34.66
2019-05-11T05:01:49.159Z,34.59
2019-05-11T05:04:22.370Z,34.56
2019-05-11T05:06:59.747Z,34.65
2019-05-11T05:09:28.174Z,34.59
2019-05-11T05:12:00.246Z,34.74
2019-05-11T05:14:32.935Z,34.72
2019-05-11T05:17:05.689Z,34.77
2019-05-11T05:19:38.622Z,34.73
2019-05-11T05:22:11.254Z,34.59
2019-05-11T05:24:44.235Z,34.71
2019-05-11T05:27:16.386Z,34.86
2019-05-11T05:29:49.188Z,34.82
2019-05-11T05:32:21.328Z,34.86
2019-05-11T05:34:54.288Z,34.86
2019-05-11T05:37:26.348Z,34.94
2019-05-11T05:39:58.657Z,35.08
2019-05-11T05:42:30.910Z,35.05
2019-05-11T05:45:03.691Z,34.90
2019-05-11T05:47:38.183Z,34.85
2019-05-11T05:50:11.172Z,34.75
2019-05-11T05:52:44.036Z,34.83
2019-05-11T05:55:16.750Z,34.90
2019-05-11T05:57:49.075Z,34.84
2019-05-11T06:00:21.765Z,34.72
2019-05-11T06:02:53.887Z,34.79
2019-05-11T06:05:26.273Z,34.89
2019-05-11T06:07:59.050Z,34.87
2019-05-11T06:10:31.906Z,34.93
2019-05-11T06:13:06.794Z,34.91
2019-05-11T06:15:39.203Z,35.06
2019-05-11T06:18:11.718Z,34.95
2019-05-11T06:20:44.374Z,35.06
2019-05-11T06:23:17.336Z,35.02
2019-05-11T06:25:50.028Z,35.09
2019-05-11T06:28:26.207Z,34.94
2019-05-11T06:30:58.820Z,34.92
2019-05-11T06:33:31.135Z,34.88
2019-05-11T06:36:03.776Z,34.95
2019-05-11T06:38:36.857Z,34.91
2019-05-11T06:41:12.823Z,34.86
2019-05-11T06:44:00.676Z,34.85
2019-05-11T06:46:18.894Z,34.87
2019-05-11T06:48:51.804Z,34.87
2019-05-11T06:51:28.013Z,34.93
2019-05-11T06:54:00.575Z,34.96
2019-05-11T06:56:32.930Z,34.96
2019-05-11T06:59:05.778Z,34.93
2019-05-11T07:01:38.395Z,34.98
2019-05-11T07:04:11.375Z,35.08
2019-05-11T07:06:43.634Z,35.03
2019-05-11T07:09:16.010Z,35.02
2019-05-11T07:11:48.873Z,35.12
2019-05-11T07:14:21.634Z,35.07
2019-05-11T07:16:58.006Z,35.16
2019-05-11T07:19:30.798Z,35.17
2019-05-11T07:22:04.400Z,35.21
2019-05-11T07:24:37.815Z,35.18
2019-05-11T07:27:09.948Z,35.09
2019-05-11T07:29:43.604Z,35.13
2019-05-11T07:32:23.056Z,35.13
2019-05-11T07:34:50.479Z,35.00
2019-05-11T07:37:24.447Z,34.96
2019-05-11T07:39:58.068Z,35.04
2019-05-11T07:42:31.129Z,35.09
2019-05-11T07:45:04.799Z,35.11
2019-05-11T07:47:38.068Z,35.02
2019-05-11T07:50:12.691Z,35.16
2019-05-11T07:52:45.555Z,35.20
2019-05-11T07:55:21.327Z,35.12
2019-05-11T07:57:53.490Z,35.14
2019-05-11T08:00:28.051Z,35.17
2019-05-11T08:03:01.301Z,35.31
2019-05-11T08:05:34.920Z,35.22
2019-05-11T08:08:08.690Z,35.36
2019-05-11T08:10:41.675Z,35.44
2019-05-11T09:01:21.130Z,35.05
2019-05-11T09:03:53.630Z,35.09
2019-05-11T09:06:28.292Z,35.11
2019-05-11T09:09:00.158Z,35.23
2019-05-11T09:11:32.519Z,35.43
2019-05-11T09:14:04.884Z,35.45
2019-05-11T09:16:41.833Z,35.55
2019-05-11T09:19:13.917Z,35.62
2019-05-11T09:21:48.233Z,35.68
2019-05-11T09:24:20.406Z,35.69
2019-05-11T09:26:54.139Z,35.76
2019-05-11T09:29:28.209Z,35.74
2019-05-11T09:32:01.142Z,35.68
2019-05-11T09:34:33.335Z,35.75
2019-05-11T09:37:07.774Z,35.76
2019-05-11T09:39:42.279Z,35.71
2019-05-11T09:42:14.362Z,35.75
2019-05-11T09:44:50.924Z,35.80
2019-05-11T09:47:23.808Z,35.84
2019-05-11T09:49:58.295Z,35.87
2019-05-11T09:52:32.609Z,35.90
2019-05-11T09:55:09.098Z,35.87
2019-05-11T09:57:42.188Z,35.83
2019-05-11T10:00:15.009Z,35.85
2019-05-11T10:02:48.773Z,35.76
2019-05-11T10:05:21.410Z,35.76
2019-05-11T10:07:54.653Z,35.75
2019-05-11T10:10:28.943Z,35.78
2019-05-11T10:13:01.374Z,35.77
2019-05-11T10:15:33.711Z,35.71
2019-05-11T10:18:08.697Z,35.66
2019-05-11T10:20:41.361Z,35.62
2019-05-11T10:23:14.437Z,35.53
2019-05-11T10:25:48.088Z,35.51
2019-05-11T10:28:21.479Z,35.46
2019-05-11T10:30:53.981Z,35.44
2019-05-11T10:33:28.127Z,35.35
2019-05-11T10:36:03.393Z,35.33
2019-05-11T10:38:38.053Z,35.27
2019-05-11T10:41:11.098Z,35.22
2019-05-11T10:43:48.866Z,35.25
2019-05-11T10:46:23.574Z,35.24
2019-05-11T10:48:54.987Z,35.32
2019-05-11T10:51:28.794Z,35.29
2019-05-11T10:54:00.825Z,35.36
2019-05-11T10:56:33.297Z,35.34
2019-05-11T10:59:07.858Z,35.33
2019-05-11T11:01:39.517Z,35.29
2019-05-11T11:04:11.725Z,35.38
2019-05-11T11:06:44.489Z,35.42
2019-05-11T11:09:17.867Z,35.41
2019-05-11T11:11:50.146Z,35.43
2019-05-11T11:14:23.353Z,35.35
2019-05-11T11:16:58.147Z,35.38
2019-05-11T11:19:29.575Z,35.33
2019-05-11T11:22:30.272Z,35.29
2019-05-11T11:24:39.010Z,35.27
2019-05-11T11:27:11.098Z,35.20
2019-05-11T11:29:44.286Z,35.18
2019-05-11T11:32:18.236Z,35.21
2019-05-11T11:34:50.240Z,35.20
2019-05-11T11:40:08.396Z,35.25
2019-05-11T11:42:41.860Z,35.23
2019-05-11T11:45:14.612Z,35.28
2019-05-11T11:47:49.316Z,35.28
2019-05-11T11:50:21.235Z,35.28
2019-05-11T11:52:54.703Z,35.29
2019-05-11T11:55:28.990Z,35.30
2019-05-11T11:58:01.060Z,35.35
2019-05-11T12:00:33.114Z,35.30
2019-05-11T12:03:07.852Z,35.29
2019-05-11T12:05:39.738Z,35.27
2019-05-11T12:08:15.417Z,35.31
2019-05-11T12:10:48.517Z,35.25
2019-05-11T12:13:21.051Z,35.26
2019-05-11T12:16:02.613Z,35.28
2019-05-11T12:18:38.195Z,35.20
2019-05-11T12:21:10.114Z,35.17
2019-05-11T12:23:42.726Z,35.13
2019-05-11T12:26:15.045Z,34.94
2019-05-11T12:28:49.048Z,34.97
2019-05-11T12:31:20.656Z,34.86
2019-05-11T12:33:52.466Z,34.94
2019-05-11T12:36:25.295Z,35.00
2019-05-11T12:38:58.034Z,34.95
2019-05-11T12:41:30.847Z,34.80
2019-05-11T12:44:03.491Z,34.72
2019-05-11T12:46:39.393Z,34.72
2019-05-11T12:49:10.979Z,34.68
2019-05-11T12:51:43.148Z,34.68
2019-05-11T12:54:14.719Z,34.66
2019-05-11T12:56:48.995Z,34.65
2019-05-11T12:59:21.060Z,34.59
2019-05-11T13:01:53.241Z,34.63
2019-05-11T13:04:28.207Z,34.59
2019-05-11T13:07:00.667Z,34.58
2019-05-11T13:09:33.118Z,34.60
2019-05-11T13:12:05.513Z,34.60
2019-05-11T13:14:38.225Z,34.60
2019-05-11T13:17:13.239Z,34.63
2019-05-11T13:19:49.581Z,34.60
2019-05-11T13:22:21.889Z,34.61
2019-05-11T13:24:54.547Z,34.48
2019-05-11T13:27:28.357Z,34.48
2019-05-11T13:30:00.615Z,34.41
2019-05-11T13:32:32.375Z,34.44
2019-05-11T13:35:03.665Z,34.44
2019-05-11T13:37:38.691Z,34.45
2019-05-11T13:40:15.685Z,34.45
2019-05-11T13:42:49.018Z,34.43
2019-05-11T13:45:21.290Z,34.40
2019-05-11T13:47:58.469Z,34.35
2019-05-11T13:50:29.610Z,34.32
2019-05-11T13:53:02.421Z,34.32
2019-05-11T13:55:35.020Z,34.33
2019-05-11T13:58:08.356Z,34.29
2019-05-11T14:00:40.951Z,34.29
2019-05-11T14:03:14.066Z,34.31
2019-05-11T14:05:48.328Z,34.27
2019-05-11T14:08:19.951Z,34.31
2019-05-11T14:10:52.941Z,34.29
2019-05-11T14:13:25.298Z,34.30
2019-05-11T14:15:58.660Z,34.27
2019-05-11T14:18:31.698Z,34.34
2019-05-11T14:21:04.181Z,34.27
2019-05-11T14:23:38.783Z,34.35
2019-05-11T14:26:11.371Z,34.37
2019-05-11T14:28:43.217Z,34.39
2019-05-11T14:31:15.593Z,34.47
2019-05-11T14:33:48.848Z,34.40
2019-05-11T14:36:21.572Z,34.42
2019-05-11T14:38:57.703Z,34.50
2019-05-11T14:41:29.869Z,34.49
2019-05-11T14:44:04.555Z,34.48
2019-05-11T14:46:39.886Z,34.44
2019-05-11T14:49:11.777Z,34.47
2019-05-11T14:51:45.112Z,34.61
2019-05-11T14:54:18.845Z,34.50
2019-05-11T14:56:50.799Z,34.50
2019-05-11T14:59:23.143Z,34.50
2019-05-11T15:01:55.299Z,34.48
2019-05-11T15:04:28.639Z,34.49
2019-05-11T15:07:01.542Z,34.51
2019-05-11T15:09:34.174Z,34.50
2019-05-11T15:12:08.557Z,34.49
2019-05-11T15:14:43.527Z,34.52
2019-05-11T15:17:15.867Z,34.54
2019-05-11T15:19:48.846Z,34.50
2019-05-11T15:22:21.769Z,34.49
2019-05-11T15:24:58.798Z,34.53
2019-05-11T15:27:30.933Z,34.51
2019-05-11T15:30:07.872Z,34.52
2019-05-11T15:32:40.034Z,34.49
2019-05-11T15:35:13.519Z,34.50
2019-05-11T15:37:47.938Z,34.50
2019-05-11T15:40:24.123Z,34.48
2019-05-11T15:42:59.970Z,34.49
2019-05-11T15:45:32.714Z,34.47
2019-05-11T15:48:58.541Z,34.39
2019-05-11T15:51:20.093Z,34.25
2019-05-11T15:53:58.709Z,34.14
2019-05-11T15:56:38.323Z,34.11
2019-05-11T15:59:12.232Z,34.02
2019-05-11T16:01:45.730Z,33.89
2019-05-11T16:04:27.955Z,33.92
2019-05-11T16:07:08.363Z,33.89
2019-05-11T16:09:45.920Z,33.87
2019-05-11T16:12:20.684Z,33.95
2019-05-11T16:14:52.924Z,33.91
2019-05-11T16:17:25.285Z,33.92
2019-05-11T16:19:58.534Z,33.92
2019-05-11T16:22:31.173Z,33.93
2019-05-11T16:25:03.767Z,33.90
2019-05-11T16:30:34.106Z,33.80
2019-05-11T16:33:08.719Z,33.78
2019-05-11T16:35:42.032Z,33.89
2019-05-11T16:38:23.082Z,33.86
2019-05-11T16:40:58.321Z,33.79
2019-05-11T16:43:30.258Z,33.77
2019-05-11T16:46:09.050Z,33.75
2019-05-11T16:48:41.903Z,33.80
2019-05-11T16:51:17.751Z,33.77
2019-05-11T16:53:50.196Z,33.69
2019-05-11T16:56:24.077Z,33.72
2019-05-11T16:58:58.928Z,33.78
2019-05-11T17:01:32.425Z,33.81
2019-05-11T17:04:05.574Z,33.74
2019-05-11T17:06:38.790Z,33.85
2019-05-11T17:09:11.660Z,33.82
2019-05-11T17:11:51.293Z,33.77
2019-05-11T17:14:28.176Z,33.86
2019-05-11T17:17:01.391Z,33.84
2019-05-11T17:19:43.729Z,33.82
2019-05-11T17:22:11.171Z,33.80
2019-05-11T17:24:43.691Z,33.71
2019-05-11T17:27:17.826Z,33.74
2019-05-11T17:29:59.117Z,33.72
2019-05-11T17:32:30.839Z,33.77
2019-05-11T17:35:02.889Z,33.75
2019-05-11T17:37:37.872Z,33.78
2019-05-11T17:40:10.830Z,33.74
2019-05-11T17:42:43.572Z,33.75
2019-05-11T17:45:19.049Z,33.72
2019-05-11T17:47:51.018Z,33.65
2019-05-11T17:50:23.645Z,33.65
2019-05-11T17:52:56.438Z,33.69
2019-05-11T17:55:29.500Z,33.72
2019-05-11T17:58:02.589Z,33.64
2019-05-11T18:00:34.704Z,33.61
2019-05-11T18:03:11.014Z,33.58
2019-05-11T18:05:45.201Z,33.59
2019-05-11T18:08:19.097Z,33.52
2019-05-11T18:10:52.336Z,33.62
2019-05-11T18:13:27.722Z,33.61
2019-05-11T18:16:00.028Z,33.56
2019-05-11T18:18:33.398Z,33.62
2019-05-11T18:21:10.357Z,33.55
2019-05-11T18:23:48.017Z,33.55
2019-05-11T18:26:28.617Z,33.55
2019-05-11T18:29:02.374Z,33.56
2019-05-11T18:31:42.909Z,33.55
2019-05-11T18:34:23.107Z,33.48
2019-05-11T18:37:02.951Z,33.49
2019-05-11T18:39:35.408Z,33.56
2019-05-11T18:42:08.843Z,33.48
2019-05-11T18:44:41.745Z,33.53
2019-05-11T18:47:13.860Z,33.44
2019-05-11T18:49:48.472Z,33.40
2019-05-11T18:52:20.965Z,33.57
2019-05-11T18:54:57.914Z,33.53
2019-05-11T18:57:31.955Z,33.55
2019-05-11T19:00:05.117Z,33.64
2019-05-11T19:02:45.188Z,33.53
2019-05-11T19:05:18.055Z,33.66
2019-05-11T19:07:58.451Z,33.60
2019-05-11T19:10:31.085Z,33.81
2019-05-11T19:13:09.367Z,33.76
2019-05-11T19:15:43.425Z,33.68
2019-05-11T19:18:17.921Z,33.73
2019-05-11T19:20:50.656Z,33.62
2019-05-11T19:23:23.753Z,33.56
2019-05-11T19:25:57.876Z,33.54
2019-05-11T19:28:30.655Z,33.50
2019-05-11T19:31:11.148Z,33.78
2019-05-11T19:33:45.680Z,33.57
2019-05-11T19:36:17.401Z,33.66
2019-05-11T19:38:50.386Z,33.57
2019-05-11T19:41:23.365Z,33.49
2019-05-11T19:43:57.734Z,33.48
2019-05-11T19:46:42.836Z,33.32
2019-05-11T19:49:15.849Z,33.33
2019-05-11T19:51:48.837Z,33.25
2019-05-11T19:54:21.458Z,33.32
2019-05-11T19:56:53.731Z,33.36
2019-05-11T19:59:28.001Z,33.29
2019-05-11T20:02:05.280Z,33.39
2019-05-11T20:04:45.199Z,33.28
2019-05-11T20:07:18.464Z,33.33
2019-05-11T20:09:51.818Z,33.37
2019-05-11T20:12:31.939Z,33.31
2019-05-11T20:15:08.088Z,33.34
2019-05-11T20:17:40.088Z,33.31
2019-05-11T20:20:13.023Z,33.26
2019-05-11T20:22:47.957Z,33.31
2019-05-11T20:25:19.477Z,33.21
2019-05-11T20:27:58.949Z,33.22
2019-05-11T20:30:38.372Z,33.18
2019-05-11T20:33:12.569Z,33.34
2019-05-11T20:35:48.827Z,33.27
2019-05-11T20:38:21.262Z,33.24
2019-05-11T20:40:53.889Z,33.22
2019-05-11T20:43:28.102Z,33.15
2019-05-11T20:46:04.036Z,33.13
2019-05-11T20:48:38.247Z,33.08
2019-05-11T20:51:10.312Z,33.04
2019-05-11T20:53:46.210Z,33.09
2019-05-11T20:56:17.991Z,32.96
2019-05-11T20:58:52.212Z,33.15
2019-05-11T21:01:28.652Z,33.02
2019-05-11T21:04:08.834Z,33.17
2019-05-11T21:06:48.764Z,33.10
2019-05-11T21:09:21.137Z,33.04
2019-05-11T21:11:54.077Z,32.96
2019-05-11T21:14:34.218Z,32.95
2019-05-11T21:17:09.025Z,32.95
2019-05-11T21:19:58.073Z,32.89
2019-05-11T21:22:30.922Z,32.91
2019-05-11T21:25:05.070Z,32.84
2019-05-11T21:27:38.782Z,32.81
2019-05-11T21:30:12.402Z,32.84
2019-05-11T21:32:48.200Z,32.72
2019-05-11T21:35:21.724Z,32.65
2019-05-11T21:37:54.289Z,32.66
2019-05-11T21:40:28.971Z,32.64
2019-05-11T21:43:00.506Z,32.64
2019-05-11T21:45:33.147Z,32.58
2019-05-11T21:48:06.082Z,32.57
2019-05-11T21:50:39.528Z,32.52
2019-05-11T21:53:12.409Z,32.51
2019-05-11T21:55:45.141Z,32.49
2019-05-11T21:58:18.560Z,32.49
2019-05-11T22:00:52.739Z,32.52
2019-05-11T22:03:28.106Z,32.47
2019-05-11T22:06:03.274Z,32.42
2019-05-11T22:08:42.647Z,32.39
2019-05-11T22:11:14.969Z,32.46
2019-05-11T22:13:50.689Z,32.36
2019-05-11T22:16:23.161Z,32.43
2019-05-11T22:18:57.965Z,32.29
2019-05-11T22:21:31.141Z,32.39
2019-05-11T22:24:03.577Z,32.30
2019-05-11T22:26:37.962Z,32.28
2019-05-11T22:29:09.956Z,32.28
2019-05-11T22:31:52.457Z,32.19
2019-05-11T22:34:31.749Z,32.35
2019-05-11T22:37:12.135Z,32.34
2019-05-11T22:39:44.862Z,32.38
2019-05-11T22:42:18.435Z,32.34
2019-05-11T22:44:54.013Z,32.32
2019-05-11T22:47:28.473Z,32.22
2019-05-11T22:50:08.775Z,32.25
